Time;durP1;ratioP1;P1;durP2;ratioP2;P2;SDS_P1;SDS_P2;PMS_P1;PMS_P2;Temp;Humidity;BMP_temperature;BMP_pressure;BME280_temperature;BME280_humidity;BME280_pressure;Samples;Min_cycle;Max_cycle;Signal;HPM_P1;HPM_P2
2021/06/12 00:00:58;;;;;;;17.00;14.05;;;;;;;17.34;72.16;99376.03;5112637;28;20122;-53
2021/06/12 00:03:24;;;;;;;15.60;13.55;;;;;;;17.36;72.00;99379.44;5110664;28;20026;-55
2021/06/12 00:05:49;;;;;;;15.50;13.90;;;;;;;17.36;72.16;99371.31;5112667;28;20039;-55
2021/06/12 00:08:14;;;;;;;15.88;14.15;;;;;;;17.36;72.21;99371.31;5112954;28;20471;-52
2021/06/12 00:10:41;;;;;;;17.67;14.63;;;;;;;17.44;72.35;99372.28;5111230;28;20062;-53
2021/06/12 00:13:07;;;;;;;18.00;13.88;;;;;;;17.36;72.24;99371.31;5112010;28;20096;-51
2021/06/12 00:15:34;;;;;;;18.33;13.38;;;;;;;17.44;72.15;99380.41;5110933;28;20110;-50
2021/06/12 00:18:00;;;;;;;17.77;13.90;;;;;;;17.41;72.27;99370.75;5112461;28;20041;-54
2021/06/12 00:20:30;;;;;;;14.82;13.20;;;;;;;17.46;72.26;99370.22;5112462;28;20494;-54
2021/06/12 00:22:56;;;;;;;15.95;14.23;;;;;;;17.41;72.06;99359.13;5112157;28;20031;-54
2021/06/12 00:25:25;;;;;;;15.45;12.73;;;;;;;17.45;71.98;99368.56;5110187;28;20059;-55
2021/06/12 00:27:54;;;;;;;14.70;12.18;;;;;;;17.40;72.11;99360.13;5112307;28;20506;-54
2021/06/12 00:30:20;;;;;;;14.45;12.13;;;;;;;17.28;72.35;99344.31;5111783;28;20154;-55
2021/06/12 00:32:45;;;;;;;15.77;12.52;;;;;;;17.36;72.03;99348.81;5110700;28;20154;-54
2021/06/12 00:35:12;;;;;;;14.32;12.50;;;;;;;17.29;72.00;99353.28;5110221;28;20109;-51
2021/06/12 00:37:38;;;;;;;15.73;12.43;;;;;;;17.26;72.39;99354.47;5112347;28;20042;-50
2021/06/12 00:40:06;;;;;;;13.30;11.73;;;;;;;17.24;72.67;99351.09;5111839;28;20035;-57
2021/06/12 00:42:32;;;;;;;14.75;12.50;;;;;;;17.22;72.62;99345.03;5102785;28;20037;-51
2021/06/12 00:44:58;;;;;;;14.25;12.80;;;;;;;17.26;72.62;99348.22;5111469;28;20134;-49
2021/06/12 00:47:23;;;;;;;17.10;12.80;;;;;;;17.30;72.69;99344.97;5111538;28;20038;-55
2021/06/12 00:49:49;;;;;;;13.82;12.10;;;;;;;17.32;72.59;99334.81;5111460;28;20035;-52
2021/06/12 00:52:14;;;;;;;15.27;13.68;;;;;;;17.25;72.56;99320.31;5109609;28;20122;-51
2021/06/12 00:54:40;;;;;;;16.40;13.55;;;;;;;17.36;72.43;99336.16;5111677;28;20088;-55
2021/06/12 00:57:06;;;;;;;15.45;13.82;;;;;;;17.36;72.33;99329.88;5111820;28;20118;-54
2021/06/12 00:59:32;;;;;;;17.00;13.95;;;;;;;17.32;72.31;99328.56;5110082;28;20104;-52
2021/06/12 01:01:58;;;;;;;15.05;13.43;;;;;;;17.35;72.44;99342.56;5110629;28;20069;-54
2021/06/12 01:04:24;;;;;;;16.58;14.20;;;;;;;17.29;72.48;99343.28;5110578;28;20040;-55
2021/06/12 01:06:50;;;;;;;16.23;14.43;;;;;;;17.33;72.73;99355.41;5111193;28;20065;-54
2021/06/12 01:09:23;;;;;;;16.50;13.38;;;;;;;17.29;72.71;99348.69;5110378;28;20060;-56
2021/06/12 01:12:01;;;;;;;15.63;13.82;;;;;;;17.35;72.67;99347.97;5110809;28;20134;-53
2021/06/12 01:14:31;;;;;;;16.85;13.82;;;;;;;17.31;72.75;99345.81;5109274;28;20031;-54
2021/06/12 01:17:12;;;;;;;19.52;13.57;;;;;;;17.35;72.70;99345.25;5111302;28;20122;-55
2021/06/12 01:19:37;;;;;;;14.70;12.60;;;;;;;17.39;72.37;99344.91;5111629;28;20041;-55
2021/06/12 01:22:12;;;;;;;16.98;13.32;;;;;;;17.42;72.49;99344.56;5110950;28;20122;-55
2021/06/12 01:24:56;;;;;;;14.98;12.85;;;;;;;17.49;72.35;99349.06;5109187;28;20130;-52
2021/06/12 01:27:24;;;;;;;14.45;12.80;;;;;;;17.45;72.17;99342.31;5111243;28;20050;-56
2021/06/12 01:30:13;;;;;;;15.27;12.98;;;;;;;17.50;72.30;99336.38;5110418;28;20380;-55
2021/06/12 01:32:48;;;;;;;13.77;12.05;;;;;;;17.45;71.83;99342.31;5111023;28;20046;-53
2021/06/12 01:35:24;;;;;;;16.88;12.13;;;;;;;17.50;71.64;99333.66;5109427;28;20485;-52
2021/06/12 01:37:51;;;;;;;17.17;13.30;;;;;;;17.50;71.70;99330.97;5110789;28;20043;-52
2021/06/12 01:40:20;;;;;;;14.38;12.23;;;;;;;17.41;71.88;99318.53;5109195;28;20031;-53
2021/06/12 01:42:48;;;;;;;15.27;12.80;;;;;;;17.48;72.00;99333.00;5109425;28;20059;-53
2021/06/12 01:45:14;;;;;;;17.92;12.30;;;;;;;17.49;71.86;99326.56;5108783;28;20110;-55
2021/06/12 01:47:40;;;;;;;13.57;12.00;;;;;;;17.51;71.85;99335.34;5110982;28;20040;-54
2021/06/12 01:50:07;;;;;;;16.05;12.85;;;;;;;17.33;71.76;99303.19;5110186;28;20043;-52
2021/06/12 01:52:36;;;;;;;14.23;12.02;;;;;;;17.51;71.78;99329.94;5110649;28;20043;-52
2021/06/12 01:55:04;;;;;;;16.05;12.65;;;;;;;17.53;71.78;99333.28;5109248;28;20035;-56
2021/06/12 01:57:30;;;;;;;13.18;11.73;;;;;;;17.62;71.53;99340.34;5110374;28;20509;-53
2021/06/12 01:59:57;;;;;;;14.68;12.30;;;;;;;17.69;71.38;99342.31;5110158;28;20023;-56
2021/06/12 02:02:23;;;;;;;13.50;12.10;;;;;;;17.64;71.08;99335.59;5110426;28;20478;-51
2021/06/12 02:04:50;;;;;;;15.10;13.15;;;;;;;17.75;71.11;99333.47;5110663;28;20057;-55
2021/06/12 02:07:18;;;;;;;16.42;13.35;;;;;;;17.82;70.78;99328.16;5108773;28;20027;-57
2021/06/12 02:09:47;;;;;;;17.13;13.75;;;;;;;17.73;70.55;99321.97;5109589;28;20067;-51
2021/06/12 02:12:14;;;;;;;17.17;13.40;;;;;;;17.87;70.40;99323.03;5110685;28;20055;-55
2021/06/12 02:14:41;;;;;;;16.63;13.32;;;;;;;17.93;70.23;99327.69;5110946;28;20053;-50
2021/06/12 02:17:08;;;;;;;15.77;13.05;;;;;;;18.00;70.29;99325.09;5108320;28;20043;-50
2021/06/12 02:19:36;;;;;;;17.67;12.88;;;;;;;18.00;70.24;99314.25;5109366;28;20592;-54
2021/06/12 02:22:02;;;;;;;19.00;12.88;;;;;;;18.08;69.85;99319.63;5110151;28;20547;-55
2021/06/12 02:24:29;;;;;;;15.80;13.65;;;;;;;18.07;69.91;99312.53;5110532;28;20122;-52
2021/06/12 02:26:55;;;;;;;13.88;11.93;;;;;;;18.16;69.85;99324.13;5108264;28;20031;-56
2021/06/12 02:29:23;;;;;;;16.67;12.52;;;;;;;18.13;69.88;99305.53;5110165;28;20499;-55
2021/06/12 02:32:04;;;;;;;15.25;12.90;;;;;;;18.20;69.87;99315.44;5108399;28;20038;-51
2021/06/12 02:34:33;;;;;;;14.82;12.48;;;;;;;18.17;69.36;99318.53;5110289;28;20039;-57
2021/06/12 02:37:00;;;;;;;13.20;11.63;;;;;;;18.09;69.80;99318.63;5108388;28;20028;-51
2021/06/12 02:39:25;;;;;;;14.70;12.52;;;;;;;18.08;69.88;99306.94;5108386;28;20039;-55
2021/06/12 02:41:51;;;;;;;18.25;13.48;;;;;;;18.12;69.68;99309.25;5110026;28;20031;-55
2021/06/12 02:44:17;;;;;;;17.63;13.27;;;;;;;18.14;69.31;99305.34;5109869;28;20036;-54
2021/06/12 02:46:44;;;;;;;15.00;13.10;;;;;;;18.10;69.31;99311.31;5109807;28;20081;-54
2021/06/12 02:49:13;;;;;;;15.65;13.75;;;;;;;18.21;69.39;99327.94;5108075;28;20035;-56
2021/06/12 02:51:44;;;;;;;22.38;14.10;;;;;;;18.26;69.11;99323.84;5109340;28;20126;-56
2021/06/12 02:54:12;;;;;;;17.70;14.57;;;;;;;18.21;69.16;99319.00;5109514;28;20032;-52
2021/06/12 02:56:38;;;;;;;17.10;14.18;;;;;;;18.14;69.61;99335.16;5111570;28;20058;-52
2021/06/12 02:59:09;;;;;;;22.58;15.90;;;;;;;18.14;69.43;99324.31;5111678;27;20141;-52
2021/06/12 03:01:37;;;;;;;19.75;14.65;;;;;;;17.78;69.69;99279.78;5113725;28;20053;-54
2021/06/12 03:04:03;;;;;;;19.50;15.70;;;;;;;18.01;69.40;99321.38;5102075;28;20052;-51
2021/06/12 03:06:30;;;;;;;21.63;16.92;;;;;;;18.05;69.51;99331.69;5092999;28;20040;-55
2021/06/12 03:08:58;;;;;;;20.13;17.35;;;;;;;17.74;69.91;99283.03;5092537;28;20066;-55
2021/06/12 03:11:27;;;;;;;19.42;17.25;;;;;;;18.11;69.69;99332.81;5093383;28;20044;-55
2021/06/12 03:13:54;;;;;;;21.58;17.58;;;;;;;18.17;69.66;99329.34;5099567;28;20048;-53
2021/06/12 03:16:21;;;;;;;25.42;22.20;;;;;;;18.24;68.99;99334.03;5113154;28;20136;-55
2021/06/12 03:18:47;;;;;;;23.55;21.02;;;;;;;18.14;69.48;99316.19;5113618;28;20047;-51
2021/06/12 03:21:22;;;;;;;26.25;20.85;;;;;;;18.21;69.30;99324.41;5113627;28;20042;-55
2021/06/12 03:23:50;;;;;;;25.88;21.55;;;;;;;18.24;69.15;99321.34;5111128;28;20125;-53
2021/06/12 03:26:17;;;;;;;22.45;18.88;;;;;;;18.29;69.07;99331.59;5092834;28;20040;-54
2021/06/12 03:28:43;;;;;;;22.60;19.77;;;;;;;18.29;68.69;99323.47;5093021;28;20032;-53
2021/06/12 03:31:09;;;;;;;23.60;19.23;;;;;;;17.96;68.96;99265.03;5092893;28;20124;-54
2021/06/12 03:33:34;;;;;;;27.52;18.80;;;;;;;18.36;68.89;99314.41;5092457;28;20070;-55
2021/06/12 03:36:01;;;;;;;22.02;18.52;;;;;;;18.47;68.73;99315.81;5093486;28;20491;-53
2021/06/12 03:38:28;;;;;;;21.17;17.98;;;;;;;18.59;68.01;99312.63;5092213;28;20407;-51
2021/06/12 03:40:54;;;;;;;22.55;18.60;;;;;;;18.63;67.85;99308.50;5092771;28;20052;-54
2021/06/12 03:43:22;;;;;;;27.85;18.73;;;;;;;18.69;67.64;99315.00;5092513;28;20128;-55
2021/06/12 03:45:51;;;;;;;21.48;19.17;;;;;;;18.79;67.34;99310.16;5093252;28;20500;-53
2021/06/12 03:48:20;;;;;;;23.83;19.13;;;;;;;18.82;67.20;99317.91;5092527;28;20039;-52
2021/06/12 03:50:47;;;;;;;26.85;22.17;;;;;;;18.18;67.18;99202.84;5092934;28;20575;-56
2021/06/12 03:53:13;;;;;;;30.73;21.75;;;;;;;18.92;66.89;99320.31;5092227;28;20040;-53
2021/06/12 03:55:39;;;;;;;28.60;22.75;;;;;;;18.94;66.79;99310.13;5096664;28;20035;-57
2021/06/12 03:58:04;;;;;;;31.48;23.95;;;;;;;18.94;67.16;99305.53;5112264;28;20063;-54
2021/06/12 04:00:31;;;;;;;33.78;24.70;;;;;;;18.95;66.83;99314.50;5112767;28;20035;-53
2021/06/12 04:02:57;;;;;;;27.60;23.17;;;;;;;18.98;66.71;99319.56;5112623;28;20031;-54
2021/06/12 04:05:22;;;;;;;30.90;23.13;;;;;;;19.00;66.66;99322.13;5112330;28;20080;-52
2021/06/12 04:07:48;;;;;;;27.45;22.25;;;;;;;19.01;66.84;99319.19;5111048;27;20124;-51
2021/06/12 04:10:14;;;;;;;27.20;22.70;;;;;;;18.72;66.48;99260.44;5112753;28;20138;-54
2021/06/12 04:12:40;;;;;;;28.63;22.60;;;;;;;19.02;66.63;99312.72;5112528;28;20106;-54
2021/06/12 04:15:06;;;;;;;31.17;22.67;;;;;;;19.03;66.70;99310.88;5112096;28;20063;-54
2021/06/12 04:17:33;;;;;;;28.23;22.48;;;;;;;19.00;66.53;99301.22;5110354;28;20410;-52
2021/06/12 04:19:59;;;;;;;29.55;22.48;;;;;;;19.08;66.43;99309.28;5112515;28;20039;-51
2021/06/12 04:22:25;;;;;;;27.35;22.63;;;;;;;19.16;66.43;99312.88;5112026;28;20456;-49
2021/06/12 04:24:51;;;;;;;29.90;23.52;;;;;;;19.18;66.19;99291.81;5112329;28;20030;-54
2021/06/12 04:27:16;;;;;;;27.17;22.67;;;;;;;19.36;65.83;99322.06;5110384;28;20035;-52
2021/06/12 04:29:42;;;;;;;31.48;22.23;;;;;;;19.44;65.56;99312.09;5111698;28;20492;-53
2021/06/12 04:32:07;;;;;;;26.58;22.90;;;;;;;19.44;65.38;99299.41;5111995;28;20043;-55
2021/06/12 04:34:33;;;;;;;27.33;23.83;;;;;;;19.51;65.16;99313.84;5112075;28;20212;-52
2021/06/12 04:37:00;;;;;;;29.27;23.42;;;;;;;19.50;65.27;99314.03;5112028;28;20092;-55
2021/06/12 04:39:26;;;;;;;29.83;22.60;;;;;;;19.46;64.99;99307.31;5110442;28;20537;-53
2021/06/12 04:41:52;;;;;;;32.97;24.00;;;;;;;19.10;65.12;99259.41;5112098;28;20071;-55
2021/06/12 04:44:17;;;;;;;27.52;22.75;;;;;;;19.33;65.37;99311.59;5111987;28;20483;-57
2021/06/12 04:46:43;;;;;;;28.88;23.48;;;;;;;19.27;65.53;99304.22;5111538;28;20039;-53
2021/06/12 04:49:09;;;;;;;31.88;24.38;;;;;;;19.38;65.21;99312.91;5109438;28;20438;-57
2021/06/12 04:51:36;;;;;;;30.88;24.45;;;;;;;19.48;65.14;99306.09;5112123;28;20063;-52
2021/06/12 04:54:01;;;;;;;28.90;24.05;;;;;;;19.35;64.94;99259.81;5111438;28;20058;-56
2021/06/12 04:56:27;;;;;;;26.38;23.00;;;;;;;19.82;64.23;99303.66;5111075;28;20494;-57
2021/06/12 04:58:52;;;;;;;28.50;23.85;;;;;;;19.57;63.63;99244.38;5110065;28;20487;-56
2021/06/12 05:01:18;;;;;;;27.48;22.92;;;;;;;19.99;63.45;99319.69;5111598;28;20043;-52
2021/06/12 05:03:43;;;;;;;28.88;24.45;;;;;;;19.95;63.59;99308.41;5110907;28;20039;-55
2021/06/12 05:06:09;;;;;;;28.02;23.83;;;;;;;19.92;63.62;99306.91;5111302;28;20028;-55
2021/06/12 05:08:34;;;;;;;30.67;24.40;;;;;;;19.88;63.92;99292.00;5111381;28;20031;-52
2021/06/12 05:11:00;;;;;;;28.30;24.70;;;;;;;19.92;63.95;99306.91;5108742;28;20059;-55
2021/06/12 05:13:26;;;;;;;31.65;25.75;;;;;;;19.91;63.92;99299.78;5111272;28;20452;-55
2021/06/12 05:15:52;;;;;;;30.77;25.58;;;;;;;19.83;63.63;99274.63;5111695;28;20032;-55
2021/06/12 05:18:18;;;;;;;30.10;24.83;;;;;;;20.04;63.27;99296.31;5110908;27;20453;-54
2021/06/12 05:20:43;;;;;;;29.73;25.77;;;;;;;19.80;62.96;99229.69;5108680;28;20435;-53
2021/06/12 05:23:09;;;;;;;29.83;25.33;;;;;;;20.29;62.69;99284.16;5110712;28;20086;-56
2021/06/12 05:25:36;;;;;;;27.92;24.52;;;;;;;20.49;62.18;99287.78;5111614;28;20134;-54
2021/06/12 05:28:02;;;;;;;30.80;25.58;;;;;;;20.64;61.49;99286.81;5110912;28;20039;-56
2021/06/12 05:30:28;;;;;;;30.38;25.70;;;;;;;20.76;61.05;99284.34;5109065;28;20509;-54
2021/06/12 05:32:54;;;;;;;30.50;24.90;;;;;;;20.88;60.53;99273.72;5110882;28;20039;-54
2021/06/12 05:35:20;;;;;;;32.90;26.02;;;;;;;21.14;60.18;99283.00;5109351;28;20028;-55
2021/06/12 05:37:45;;;;;;;29.58;25.08;;;;;;;21.23;59.75;99276.34;5110855;28;20135;-51
2021/06/12 05:40:12;;;;;;;33.03;27.77;;;;;;;21.44;59.02;99272.56;5110620;28;20040;-51
2021/06/12 05:42:38;;;;;;;32.47;28.10;;;;;;;21.69;58.18;99273.84;5108264;28;20031;-53
2021/06/12 05:45:07;;;;;;;32.15;26.17;;;;;;;21.77;57.48;99260.84;5110820;27;20035;-54
2021/06/12 05:47:32;;;;;;;33.60;26.90;;;;;;;21.84;57.17;99254.56;5110645;28;20061;-56
2021/06/12 05:49:58;;;;;;;35.22;27.60;;;;;;;21.93;57.10;99267.72;5109948;28;20360;-57
2021/06/12 05:52:23;;;;;;;34.40;27.42;;;;;;;21.96;56.86;99274.66;5100381;28;20394;-55
2021/06/12 05:54:49;;;;;;;32.60;25.60;;;;;;;22.01;56.79;99277.56;5090543;28;20032;-55
2021/06/12 05:57:14;;;;;;;34.70;26.45;;;;;;;22.02;56.81;99256.63;5090244;28;20036;-57
2021/06/12 05:59:40;;;;;;;30.67;26.90;;;;;;;22.02;56.72;99260.19;5093419;28;20074;-55
2021/06/12 06:02:06;;;;;;;32.08;26.65;;;;;;;22.22;56.21;99260.16;5108031;28;20043;-56
2021/06/12 06:04:32;;;;;;;27.83;24.85;;;;;;;22.49;55.65;99257.34;5110363;28;20034;-55
2021/06/12 06:06:57;;;;;;;30.02;25.38;;;;;;;22.77;54.74;99231.59;5110658;28;20444;-51
2021/06/12 06:09:23;;;;;;;29.77;26.58;;;;;;;23.15;53.52;99250.88;5110367;28;20077;-53
2021/06/12 06:11:48;;;;;;;30.85;25.27;;;;;;;23.35;53.23;99253.50;5110379;28;20036;-52
2021/06/12 06:14:13;;;;;;;29.65;26.48;;;;;;;23.55;52.93;99253.34;5108812;28;20533;-55
2021/06/12 06:16:39;;;;;;;29.98;25.70;;;;;;;23.67;52.40;99239.78;5110799;28;20063;-56
2021/06/12 06:19:04;;;;;;;29.98;26.85;;;;;;;23.74;52.32;99253.38;5108736;28;20035;-53
2021/06/12 06:21:30;;;;;;;33.08;28.15;;;;;;;23.67;52.31;99249.91;5109987;28;20042;-57
2021/06/12 06:23:55;;;;;;;31.67;27.25;;;;;;;23.69;51.86;99254.06;5099998;28;20032;-56
2021/06/12 06:26:23;;;;;;;35.55;27.42;;;;;;;23.80;51.80;99233.34;5089388;28;20073;-52
2021/06/12 06:28:48;;;;;;;33.20;27.33;;;;;;;23.99;51.41;99227.91;5089612;28;20047;-57
2021/06/12 06:31:14;;;;;;;32.17;27.33;;;;;;;24.27;51.25;99237.50;5090362;28;20039;-52
2021/06/12 06:33:39;;;;;;;34.08;27.55;;;;;;;24.33;50.51;99250.25;5103813;28;20115;-57
2021/06/12 06:36:05;;;;;;;34.92;27.35;;;;;;;24.19;51.03;99244.97;5114186;28;20062;-59
2021/06/12 06:38:30;;;;;;;29.92;26.40;;;;;;;24.08;51.29;99238.34;5113823;28;20024;-59
2021/06/12 06:40:55;;;;;;;31.30;27.38;;;;;;;24.04;51.10;99231.66;5114767;28;20451;-63
2021/06/12 06:43:21;;;;;;;35.30;29.10;;;;;;;24.08;51.37;99238.34;5114332;28;20055;-58
2021/06/12 06:45:47;;;;;;;35.95;28.83;;;;;;;23.93;50.63;99178.56;5113173;28;20031;-60
2021/06/12 06:48:13;;;;;;;38.75;29.38;;;;;;;24.43;50.14;99227.84;5111051;28;20267;-53
2021/06/12 06:50:43;;;;;;;31.73;28.00;;;;;;;24.54;49.45;99240.75;5113606;28;20055;-58
2021/06/12 06:53:09;;;;;;;35.13;28.98;;;;;;;24.35;49.52;99239.94;5114146;28;20088;-58
2021/06/12 06:55:35;;;;;;;30.60;26.02;;;;;;;24.09;49.50;99214.56;5112885;28;20428;-59
2021/06/12 06:58:00;;;;;;;31.70;27.73;;;;;;;24.17;49.82;99211.53;5113357;28;20032;-59
2021/06/12 07:00:26;;;;;;;31.42;27.20;;;;;;;24.43;49.57;99242.38;5113736;28;20066;-56
2021/06/12 07:02:55;;;;;;;36.75;26.83;;;;;;;24.54;49.31;99246.22;5113958;28;20027;-54
2021/06/12 07:05:21;;;;;;;30.50;26.63;;;;;;;24.67;49.02;99239.75;5112277;28;20220;-57
2021/06/12 07:07:47;;;;;;;29.50;26.27;;;;;;;24.33;49.15;99184.59;5113524;27;20036;-57
2021/06/12 07:10:13;;;;;;;28.15;25.13;;;;;;;24.73;48.85;99238.00;5113281;28;20446;-54
2021/06/12 07:12:38;;;;;;;29.90;26.58;;;;;;;24.42;49.35;99210.59;5113902;28;20055;-54
2021/06/12 07:15:05;;;;;;;28.33;25.25;;;;;;;24.39;49.72;99235.69;5113681;28;20055;-56
2021/06/12 07:17:31;;;;;;;28.95;25.73;;;;;;;24.10;49.97;99183.41;5095539;28;20032;-57
2021/06/12 07:20:05;;;;;;;27.80;24.48;;;;;;;24.15;50.56;99237.44;5093132;28;20043;-55
2021/06/12 07:22:31;;;;;;;30.40;23.80;;;;;;;23.98;51.01;99226.25;5093132;28;20384;-59
2021/06/12 07:24:56;;;;;;;27.70;23.42;;;;;;;23.82;51.28;99224.94;5092604;28;20036;-57
2021/06/12 07:27:22;;;;;;;26.50;23.70;;;;;;;23.64;51.67;99219.22;5092405;28;20434;-58
2021/06/12 07:29:47;;;;;;;27.27;24.38;;;;;;;23.48;52.04;99219.78;5092666;28;20122;-60
2021/06/12 07:32:13;;;;;;;29.50;22.88;;;;;;;23.26;52.38;99213.84;5092723;28;20111;-62
2021/06/12 07:34:38;;;;;;;23.73;21.33;;;;;;;23.13;52.95;99225.69;5092420;28;20046;-58
2021/06/12 07:37:04;;;;;;;27.50;22.38;;;;;;;23.09;53.05;99239.78;5093591;28;20055;-60
2021/06/12 07:39:30;;;;;;;23.20;20.13;;;;;;;23.20;52.40;99235.50;5092126;28;20039;-59
2021/06/12 07:41:56;;;;;;;23.40;20.58;;;;;;;23.50;51.64;99225.84;5099962;28;20040;-56
2021/06/12 07:44:21;;;;;;;26.95;20.77;;;;;;;23.88;49.70;99177.56;5107370;28;20047;-61
2021/06/12 07:46:47;;;;;;;29.48;22.63;;;;;;;25.97;45.82;99204.59;5107102;28;20035;-57
2021/06/12 07:49:13;;;;;;;22.35;19.80;;;;;;;28.30;41.40;99211.41;5101366;28;20044;-59
2021/06/12 07:51:40;;;;;;;23.52;20.83;;;;;;;30.19;37.22;99219.94;5107921;28;20050;-55
2021/06/12 07:54:05;;;;;;;22.65;20.38;;;;;;;30.53;36.25;99197.44;5105558;28;20032;-59
2021/06/12 07:56:31;;;;;;;21.25;19.10;;;;;;;30.58;36.75;99210.41;5107948;28;20405;-59
2021/06/12 07:58:58;;;;;;;22.60;19.80;;;;;;;30.43;36.33;99206.50;5099293;28;20448;-57
2021/06/12 08:01:24;;;;;;;22.33;20.02;;;;;;;30.28;35.65;99192.66;5110675;28;20054;-57
2021/06/12 08:03:49;;;;;;;22.40;19.38;;;;;;;29.30;36.44;99152.34;5110481;28;20482;-56
2021/06/12 08:06:15;;;;;;;26.75;20.55;;;;;;;28.96;37.95;99223.44;5111597;28;20036;-57
2021/06/12 08:08:40;;;;;;;23.25;20.88;;;;;;;28.04;39.57;99224.81;5112521;28;20035;-59
2021/06/12 08:11:06;;;;;;;24.77;19.70;;;;;;;26.97;41.92;99229.13;5112807;28;20518;-56
2021/06/12 08:13:31;;;;;;;22.73;20.30;;;;;;;26.22;43.19;99215.34;5111600;28;20119;-55
2021/06/12 08:15:57;;;;;;;22.60;20.30;;;;;;;25.56;45.01;99226.44;5110400;28;20200;-54
2021/06/12 08:18:22;;;;;;;24.90;21.58;;;;;;;24.94;45.74;99231.19;5112076;28;20043;-59
2021/06/12 08:20:49;;;;;;;24.92;20.15;;;;;;;24.37;47.35;99222.22;5112262;28;20031;-58
2021/06/12 08:23:15;;;;;;;23.33;20.90;;;;;;;24.03;48.23;99232.72;5111892;28;20046;-57
2021/06/12 08:25:41;;;;;;;26.02;22.40;;;;;;;23.73;49.19;99232.59;5111984;28;20066;-60
2021/06/12 08:28:06;;;;;;;24.90;21.15;;;;;;;23.50;49.31;99225.84;5110246;28;20043;-57
2021/06/12 08:30:35;;;;;;;25.00;21.13;;;;;;;23.49;49.88;99235.13;5111827;28;20126;-58
2021/06/12 08:33:02;;;;;;;24.25;21.55;;;;;;;23.58;49.58;99225.56;5112337;28;20035;-60
2021/06/12 08:35:27;;;;;;;26.15;22.90;;;;;;;23.73;49.10;99227.13;5112105;28;20525;-56
2021/06/12 08:37:53;;;;;;;26.05;23.23;;;;;;;23.94;48.35;99229.44;5109930;28;20039;-58
2021/06/12 08:40:18;;;;;;;29.75;24.17;;;;;;;24.17;48.06;99222.47;5112103;28;20493;-57
2021/06/12 08:42:48;;;;;;;30.23;23.75;;;;;;;24.21;47.96;99214.63;5112233;28;20145;-59
2021/06/12 08:45:14;;;;;;;27.48;23.73;;;;;;;24.34;47.93;99224.56;5111286;28;20144;-59
2021/06/12 08:47:40;;;;;;;27.10;23.95;;;;;;;24.22;48.11;99208.94;5110076;28;20063;-59
2021/06/12 08:50:07;;;;;;;30.10;24.70;;;;;;;24.19;48.65;99211.28;5111667;28;20078;-59
2021/06/12 08:52:35;;;;;;;28.23;24.02;;;;;;;24.10;49.25;99220.88;5111963;28;20131;-59
2021/06/12 08:55:01;;;;;;;30.08;23.25;;;;;;;24.00;49.33;99215.91;5110724;28;20104;-60
2021/06/12 08:57:27;;;;;;;28.98;24.02;;;;;;;23.93;49.72;99210.50;5111812;28;20503;-61
2021/06/12 08:59:53;;;;;;;33.92;25.20;;;;;;;23.90;49.88;99210.97;5108972;28;20043;-58
2021/06/12 09:02:18;;;;;;;30.92;25.15;;;;;;;23.83;49.61;99200.09;5111188;28;20177;-60
2021/06/12 09:04:49;;;;;;;32.20;25.02;;;;;;;23.93;49.16;99216.81;5110256;28;20088;-59
2021/06/12 09:07:19;;;;;;;28.67;22.95;;;;;;;23.94;48.80;99213.03;5111654;28;20161;-59
2021/06/12 09:09:46;;;;;;;25.95;22.60;;;;;;;23.93;48.57;99205.88;5098168;28;20048;-59
2021/06/12 09:12:12;;;;;;;30.67;24.33;;;;;;;24.07;48.57;99216.69;5090611;28;20087;-60
2021/06/12 09:14:37;;;;;;;27.27;23.65;;;;;;;24.20;48.23;99213.81;5090977;28;20067;-60
2021/06/12 09:17:03;;;;;;;31.70;23.65;;;;;;;24.50;47.78;99223.97;5090143;28;20513;-60
2021/06/12 09:19:38;;;;;;;27.35;24.33;;;;;;;25.16;46.26;99211.47;5091807;28;20046;-60
2021/06/12 09:22:03;;;;;;;27.70;23.42;;;;;;;25.70;44.99;99202.38;5090917;28;20054;-58
2021/06/12 09:24:49;;;;;;;27.20;22.42;;;;;;;26.21;43.40;99199.94;5090852;28;20483;-56
2021/06/12 09:27:17;;;;;;;25.88;22.35;;;;;;;26.77;42.28;99208.47;5090708;28;20043;-52
2021/06/12 09:29:46;;;;;;;29.52;22.80;;;;;;;27.02;42.01;99195.44;5091685;28;20347;-60
2021/06/12 09:32:13;;;;;;;29.67;22.73;;;;;;;27.21;41.32;99201.53;5090642;28;20036;-57
2021/06/12 09:34:40;;;;;;;26.50;20.08;;;;;;;27.20;41.19;99213.59;5090816;28;20089;-58
2021/06/12 09:37:11;;;;;;;24.33;19.88;;;;;;;27.30;40.50;99211.03;5091018;28;20036;-56
2021/06/12 09:39:37;;;;;;;21.80;19.20;;;;;;;27.37;40.46;99206.19;5090936;28;20028;-59
2021/06/12 09:42:03;;;;;;;23.40;20.17;;;;;;;27.27;40.60;99195.06;5091858;28;20128;-60
2021/06/12 09:44:35;;;;;;;23.73;19.55;;;;;;;27.27;40.57;99206.03;5090682;28;20475;-63
2021/06/12 09:47:03;;;;;;;26.83;20.80;;;;;;;27.38;40.85;99212.53;5090981;28;20042;-55
2021/06/12 09:49:38;;;;;;;21.63;19.35;;;;;;;27.56;39.72;99203.22;5090384;28;20032;-59
2021/06/12 09:52:09;;;;;;;22.52;19.08;;;;;;;27.59;39.26;99202.72;5100906;28;20104;-57
2021/06/12 09:54:36;;;;;;;20.98;18.35;;;;;;;27.53;39.84;99187.25;5110816;28;20081;-57
2021/06/12 09:57:02;;;;;;;23.80;20.55;;;;;;;27.36;40.19;99193.53;5111017;28;20063;-57
2021/06/12 09:59:28;;;;;;;25.33;19.83;;;;;;;26.82;40.66;99135.47;5110376;28;20065;-55
2021/06/12 10:01:53;;;;;;;25.17;19.48;;;;;;;27.08;40.54;99192.53;5109480;28;20035;-54
2021/06/12 10:04:20;;;;;;;24.25;20.17;;;;;;;27.12;40.75;99186.53;5110731;28;20027;-58
2021/06/12 10:06:47;;;;;;;22.40;19.20;;;;;;;27.14;40.42;99193.47;5108923;28;20483;-59
2021/06/12 10:09:13;;;;;;;23.02;19.25;;;;;;;27.02;40.38;99182.56;5110334;28;20486;-53
2021/06/12 10:11:39;;;;;;;27.05;20.85;;;;;;;27.00;40.52;99189.38;5108542;28;20054;-52
2021/06/12 10:14:06;;;;;;;28.33;19.38;;;;;;;26.90;40.86;99190.88;5092891;28;20043;-55
2021/06/12 10:16:36;;;;;;;21.88;18.50;;;;;;;26.98;40.63;99186.03;5095569;28;20028;-55
2021/06/12 10:19:05;;;;;;;28.20;19.33;;;;;;;26.95;40.58;99187.34;5090475;28;20040;-58
2021/06/12 10:21:30;;;;;;;24.13;18.52;;;;;;;26.83;40.72;99173.66;5109733;28;20119;-56
2021/06/12 10:23:57;;;;;;;23.00;17.90;;;;;;;26.79;40.61;99173.34;5108132;28;20114;-54
2021/06/12 10:26:22;;;;;;;21.05;16.42;;;;;;;26.75;40.63;99168.59;5109772;28;20114;-55
2021/06/12 10:28:49;;;;;;;18.30;16.33;;;;;;;26.67;40.91;99169.81;5109677;28;20039;-57
2021/06/12 10:31:18;;;;;;;20.58;15.55;;;;;;;26.65;41.25;99169.22;5108527;28;20102;-53
2021/06/12 10:33:47;;;;;;;17.70;15.13;;;;;;;26.61;41.37;99162.56;5099605;28;20062;-56
2021/06/12 10:36:19;;;;;;;17.08;14.63;;;;;;;26.62;40.96;99161.50;5109666;28;20027;-59
2021/06/12 10:38:46;;;;;;;20.13;14.70;;;;;;;26.64;41.11;99156.59;5110131;28;20114;-54
2021/06/12 10:41:26;;;;;;;14.88;13.25;;;;;;;26.75;40.56;99155.66;5109261;28;20036;-53
2021/06/12 10:43:58;;;;;;;15.38;13.60;;;;;;;26.89;40.51;99161.75;5106986;28;20123;-56
2021/06/12 10:46:29;;;;;;;15.10;13.57;;;;;;;27.00;40.01;99162.72;5110192;28;20043;-52
2021/06/12 10:48:56;;;;;;;21.38;14.63;;;;;;;27.01;40.29;99147.09;5107554;28;20554;-58
2021/06/12 10:51:27;;;;;;;19.60;14.10;;;;;;;27.01;40.47;99147.94;5109504;28;20637;-56
2021/06/12 10:54:08;;;;;;;17.80;14.07;;;;;;;27.12;40.31;99142.59;5108638;28;20129;-52
2021/06/12 10:56:42;;;;;;;21.85;13.45;;;;;;;27.04;40.63;99146.59;5078603;28;20051;-59
2021/06/12 10:59:09;;;;;;;14.80;13.30;;;;;;;26.72;40.24;99120.47;5110351;28;20042;-60
2021/06/12 11:01:35;;;;;;;14.25;12.18;;;;;;;26.50;40.79;99136.84;5110231;28;20034;-62
2021/06/12 11:09:12;;;;;;;17.02;13.73;;;;;;;25.82;42.79;99133.81;5088976;28;20482;-62
2021/06/12 11:11:38;;;;;;;16.73;14.50;;;;;;;25.66;43.52;99133.47;5089816;28;20075;-61
2021/06/12 11:19:43;;;;;;;16.13;14.43;;;;;;;25.62;43.45;99130.41;5111555;28;20059;-65
2021/06/12 11:22:35;;;;;;;18.27;13.90;;;;;;;26.04;42.91;99134.00;5112950;28;20066;-72
2021/06/12 11:25:07;;;;;;;17.70;14.40;;;;;;;26.29;41.65;99113.69;5112563;28;20126;-73
2021/06/12 11:27:33;;;;;;;14.40;12.82;;;;;;;26.33;40.73;99070.94;5111971;28;20051;-70